Time;durP1;ratioP1;P1;durP2;ratioP2;P2;SDS_P1;SDS_P2;PMS_P1;PMS_P2;Temp;Humidity;BMP_temperature;BMP_pressure;BME280_temperature;BME280_humidity;BME280_pressure;Samples;Min_cycle;Max_cycle;Signal;HPM_P1;HPM_P2
2021/07/04 00:03:59;;;;;;;9.70;6.90;;;;;;;15.05;69.12;98398.20;262659;1089;22752;-71
2021/07/04 00:09:09;;;;;;;11.57;8.90;;;;;;;14.81;69.35;98398.80;261999;1090;22860;-70
2021/07/04 00:14:14;;;;;;;12.53;8.47;;;;;;;14.62;69.68;98399.22;261925;1090;22803;-71
2021/07/04 00:19:27;;;;;;;11.87;9.23;;;;;;;14.47;70.16;98395.12;261882;1089;22786;-72
2021/07/04 00:24:35;;;;;;;9.10;8.07;;;;;;;14.36;70.65;98394.67;261854;1090;26380;-71
2021/07/04 00:29:39;;;;;;;9.80;8.07;;;;;;;14.23;71.07;98408.34;261812;1090;22790;-71
2021/07/04 00:34:42;;;;;;;9.55;8.55;;;;;;;14.05;71.28;98392.24;262079;1089;22918;-72
2021/07/04 00:39:53;;;;;;;8.75;7.75;;;;;;;13.95;71.69;98381.79;262343;1089;22805;-70
2021/07/04 00:45:17;;;;;;;7.90;7.10;;;;;;;13.88;71.99;98378.80;261919;1088;22788;-71
2021/07/04 00:50:24;;;;;;;10.50;8.10;;;;;;;13.84;72.46;98390.22;261985;1089;22921;-71
2021/07/04 00:55:28;;;;;;;9.00;7.45;;;;;;;13.84;72.69;98384.05;262583;1090;22760;-71
2021/07/04 01:00:39;;;;;;;10.35;8.10;;;;;;;13.77;72.88;98376.45;262422;1090;22841;-71
2021/07/04 01:06:00;;;;;;;10.90;8.05;;;;;;;13.67;73.16;98368.72;262369;1090;22927;-71
2021/07/04 01:11:06;;;;;;;9.60;7.10;;;;;;;13.57;73.07;98374.41;262357;1090;22817;-71
2021/07/04 01:16:14;;;;;;;9.10;7.30;;;;;;;13.42;73.67;98368.41;262629;1090;23511;-70
2021/07/04 01:21:24;;;;;;;10.67;7.43;;;;;;;13.28;73.84;98368.53;262303;1090;22779;-70
2021/07/04 01:26:28;;;;;;;10.10;7.35;;;;;;;13.21;74.09;98372.78;262294;1089;25913;-72
2021/07/04 01:31:34;;;;;;;8.65;6.60;;;;;;;13.17;74.50;98381.48;262321;1090;22772;-72
2021/07/04 01:36:47;;;;;;;10.25;7.70;;;;;;;13.13;74.64;98369.77;262420;1088;23085;-72
2021/07/04 01:41:50;;;;;;;9.95;7.00;;;;;;;13.10;74.53;98373.09;262509;1090;22811;-71
2021/07/04 01:46:59;;;;;;;10.80;7.35;;;;;;;13.07;74.66;98378.33;262798;1088;22852;-71
2021/07/04 01:52:06;;;;;;;10.75;8.00;;;;;;;13.10;75.15;98378.47;262501;1090;22763;-71
2021/07/04 01:57:11;;;;;;;8.67;7.50;;;;;;;13.18;75.45;98379.61;262898;1090;22758;-72
2021/07/04 02:02:25;;;;;;;11.25;8.10;;;;;;;13.20;75.42;98377.38;262006;1090;22796;-72
2021/07/04 02:07:29;;;;;;;8.63;7.47;;;;;;;13.20;74.98;98381.98;262662;1090;22794;-71
2021/07/04 02:12:36;;;;;;;9.33;7.93;;;;;;;13.24;75.51;98382.94;262497;1090;22804;-71
2021/07/04 02:17:41;;;;;;;11.20;8.50;;;;;;;13.18;75.31;98379.61;262723;1089;22764;-71
2021/07/04 02:23:09;;;;;;;9.60;7.17;;;;;;;13.17;75.42;98394.93;262703;1089;22763;-75
2021/07/04 02:28:33;;;;;;;9.67;7.50;;;;;;;13.12;75.17;98396.98;262853;1089;25209;-72
2021/07/04 02:33:42;;;;;;;9.70;7.10;;;;;;;13.14;75.57;98397.48;262373;1090;25919;-71
2021/07/04 02:38:48;;;;;;;9.15;6.85;;;;;;;13.13;75.51;98410.11;262504;1090;22848;-71
2021/07/04 02:43:52;;;;;;;11.00;8.20;;;;;;;13.05;75.73;98400.13;261984;1090;22863;-71
2021/07/04 02:48:58;;;;;;;8.17;7.07;;;;;;;13.01;75.57;98401.86;261913;1090;22770;-72
2021/07/04 02:54:02;;;;;;;11.17;7.87;;;;;;;12.91;75.61;98412.91;261940;1090;25874;-72
2021/07/04 02:59:26;;;;;;;9.30;7.95;;;;;;;12.81;75.88;98403.23;262404;1089;27079;-71
2021/07/04 03:04:30;;;;;;;10.30;7.80;;;;;;;12.81;76.09;98403.23;262527;1089;22781;-72
2021/07/04 03:09:44;;;;;;;11.05;8.10;;;;;;;12.80;76.52;98407.84;262484;1090;23085;-72
2021/07/04 03:14:49;;;;;;;11.27;8.63;;;;;;;12.87;76.64;98422.70;262383;1090;22760;-72
2021/07/04 03:19:53;;;;;;;11.40;8.55;;;;;;;12.96;76.78;98423.53;262724;1089;22896;-72
2021/07/04 03:24:57;;;;;;;10.40;8.73;;;;;;;13.27;77.38;98417.27;262316;1089;22914;-72
2021/07/04 03:30:05;;;;;;;11.50;9.13;;;;;;;13.83;77.35;98417.45;262597;1090;22819;-73
2021/07/04 03:35:13;;;;;;;9.85;8.00;;;;;;;14.31;76.22;98423.70;262435;1088;25846;-72
2021/07/04 03:40:18;;;;;;;10.23;8.40;;;;;;;14.71;75.70;98423.44;262447;1090;22797;-72
2021/07/04 03:45:30;;;;;;;11.70;8.87;;;;;;;15.27;74.80;98434.08;262543;1090;22784;-71
2021/07/04 03:50:35;;;;;;;10.15;8.70;;;;;;;15.55;73.72;98428.95;262867;1090;22795;-70
2021/07/04 03:55:39;;;;;;;11.23;8.97;;;;;;;15.69;72.92;98430.59;261792;1089;24035;-71
2021/07/04 04:00:43;;;;;;;10.45;9.20;;;;;;;15.95;72.62;98424.20;262392;1089;22912;-71
2021/07/04 04:05:50;;;;;;;12.00;9.30;;;;;;;16.58;72.93;98427.50;263110;1088;25801;-72
2021/07/04 04:11:06;;;;;;;10.60;9.10;;;;;;;16.94;71.54;98430.58;261861;1089;26238;-71
2021/07/04 04:16:25;;;;;;;14.95;10.60;;;;;;;16.92;70.91;98435.55;262760;1090;22998;-72
2021/07/04 04:21:29;;;;;;;10.80;9.70;;;;;;;16.70;70.69;98429.41;262423;1089;22802;-74
2021/07/04 04:26:43;;;;;;;11.43;9.13;;;;;;;16.47;70.92;98434.48;262654;1089;22826;-71
2021/07/04 04:31:47;;;;;;;11.40;9.65;;;;;;;16.22;71.23;98433.64;262570;1089;22747;-71
2021/07/04 04:36:51;;;;;;;11.97;10.17;;;;;;;16.04;71.63;98431.09;262816;1089;22752;-72
2021/07/04 04:41:54;;;;;;;11.65;9.30;;;;;;;15.98;72.18;98423.55;262425;1090;22900;-72
2021/07/04 04:47:09;;;;;;;13.25;10.20;;;;;;;15.97;72.55;98425.45;262831;1090;22914;-72
2021/07/04 04:52:13;;;;;;;11.93;10.70;;;;;;;16.12;72.59;98423.23;262538;1089;22847;-72
2021/07/04 04:57:18;;;;;;;12.25;10.50;;;;;;;16.17;72.41;98421.14;262392;1089;22794;-71
2021/07/04 05:02:22;;;;;;;13.15;10.80;;;;;;;16.26;72.85;98410.23;262712;1090;24354;-70
2021/07/04 05:07:25;;;;;;;13.90;11.15;;;;;;;16.45;72.98;98417.78;261983;1089;22770;-71
2021/07/04 05:12:29;;;;;;;12.75;10.90;;;;;;;16.65;72.72;98420.73;261888;1090;22784;-72
2021/07/04 05:17:36;;;;;;;12.70;10.60;;;;;;;16.87;72.95;98427.63;261859;1090;22794;-71
2021/07/04 05:22:39;;;;;;;14.00;10.55;;;;;;;17.04;72.75;98426.63;261945;1090;26340;-72
2021/07/04 05:27:44;;;;;;;11.30;10.10;;;;;;;17.24;72.74;98430.34;262018;1090;22770;-71
2021/07/04 05:32:47;;;;;;;12.80;10.40;;;;;;;17.47;72.99;98430.61;261902;1089;22775;-72
2021/07/04 05:37:54;;;;;;;12.25;9.75;;;;;;;17.72;72.73;98428.62;261813;1090;22814;-72
2021/07/04 05:42:58;;;;;;;10.10;9.10;;;;;;;17.88;71.36;98428.69;262079;1090;22855;-71
2021/07/04 05:48:01;;;;;;;10.93;9.57;;;;;;;17.97;71.35;98430.49;261882;1090;22789;-72
2021/07/04 05:53:05;;;;;;;10.75;8.55;;;;;;;18.11;70.90;98418.09;261860;1090;22799;-72
2021/07/04 05:58:08;;;;;;;11.75;7.80;;;;;;;18.24;70.65;98421.55;262028;1090;23036;-72
2021/07/04 06:03:52;;;;;;;10.65;8.25;;;;;;;18.43;70.85;98414.64;262082;1090;23500;-72
2021/07/04 06:09:59;;;;;;;;;;;;;;;;;;;;;
2021/07/04 06:15:35;;;;;;;7.90;7.10;;;;;;;18.96;69.80;98422.53;261904;1090;22856;-72
2021/07/04 06:20:39;;;;;;;8.27;6.20;;;;;;;19.16;68.73;98423.36;261853;1090;22856;-70
2021/07/04 06:25:42;;;;;;;8.00;6.80;;;;;;;19.36;68.21;98428.82;262108;1089;22763;-72
2021/07/04 06:30:46;;;;;;;6.60;5.60;;;;;;;19.54;67.29;98427.26;262133;1088;22790;-71
2021/07/04 06:35:50;;;;;;;6.10;5.50;;;;;;;19.71;66.81;98430.70;262301;1090;25942;-72
2021/07/04 06:40:54;;;;;;;5.90;5.30;;;;;;;19.89;65.97;98441.96;262225;1089;22760;-72
2021/07/04 06:45:57;;;;;;;5.90;4.37;;;;;;;20.02;65.06;98440.67;262380;1088;22763;-71
2021/07/04 06:51:00;;;;;;;5.37;4.43;;;;;;;20.16;63.98;98437.41;262721;1089;22833;-71
2021/07/04 06:56:09;;;;;;;6.23;4.90;;;;;;;20.28;63.94;98442.69;263066;1090;22861;-73
2021/07/04 07:01:13;;;;;;;6.30;5.03;;;;;;;20.42;63.17;98441.38;262362;1090;22844;-72
2021/07/04 07:06:26;;;;;;;5.90;5.10;;;;;;;20.48;63.06;98446.16;262874;1089;22779;-72
2021/07/04 07:11:30;;;;;;;5.65;5.05;;;;;;;20.65;62.80;98433.20;261812;1090;22782;-72
2021/07/04 07:16:37;;;;;;;8.10;5.90;;;;;;;20.76;62.63;98441.58;261772;1090;22767;-71
2021/07/04 07:21:44;;;;;;;11.40;6.40;;;;;;;20.99;61.98;98441.55;261873;1090;22893;-71
2021/07/04 07:26:51;;;;;;;7.27;5.73;;;;;;;21.16;62.20;98443.74;262086;1090;22960;-73
2021/07/04 07:31:55;;;;;;;7.05;6.15;;;;;;;21.34;61.32;98437.77;262723;1089;22769;-71
2021/07/04 07:36:58;;;;;;;6.47;5.87;;;;;;;21.53;60.56;98439.59;262149;1090;22860;-72
2021/07/04 07:42:02;;;;;;;6.48;5.80;;;;;;;21.59;60.29;98429.15;261904;1090;22856;-72
2021/07/04 07:47:06;;;;;;;6.20;5.05;;;;;;;21.78;60.19;98434.45;261927;1090;22793;-71
2021/07/04 07:52:18;;;;;;;6.20;5.60;;;;;;;21.92;59.81;98428.38;261800;1090;26100;-72
2021/07/04 07:57:23;;;;;;;6.55;5.48;;;;;;;22.01;59.14;98428.09;261905;1089;22757;-74
2021/07/04 08:02:41;;;;;;;6.50;5.85;;;;;;;22.15;58.25;98424.73;261385;1090;24036;-71
2021/07/04 08:08:12;;;;;;;5.15;4.63;;;;;;;22.24;57.64;98414.28;261908;1090;22760;-71
2021/07/04 08:13:31;;;;;;;6.73;5.73;;;;;;;22.22;56.55;98408.44;261874;1089;25864;-72
2021/07/04 08:18:50;;;;;;;5.13;4.63;;;;;;;22.33;56.25;98406.62;261887;1090;22822;-72
2021/07/04 08:24:14;;;;;;;5.93;4.55;;;;;;;22.50;56.11;98407.93;261905;1090;22774;-71
2021/07/04 08:29:37;;;;;;;4.20;3.90;;;;;;;22.65;55.39;98416.23;261885;1090;22804;-72
2021/07/04 08:34:41;;;;;;;5.08;4.58;;;;;;;22.83;55.06;98400.78;261902;1090;22818;-71
2021/07/04 08:39:52;;;;;;;5.00;4.55;;;;;;;23.06;54.07;98403.26;262071;1090;22924;-73
2021/07/04 08:45:05;;;;;;;6.90;5.03;;;;;;;23.13;53.93;98394.36;261875;1090;22786;-71
2021/07/04 08:50:12;;;;;;;6.08;4.80;;;;;;;23.27;53.25;98392.84;262124;1090;22806;-72
2021/07/04 08:55:17;;;;;;;5.08;4.58;;;;;;;23.39;52.74;98396.05;261869;1089;26236;-72
2021/07/04 09:00:34;;;;;;;5.45;4.88;;;;;;;23.52;52.84;98392.98;261809;1090;23331;-71
2021/07/04 09:06:08;;;;;;;6.18;4.80;;;;;;;23.66;52.33;98386.77;261773;1089;24321;-72
2021/07/04 09:11:35;;;;;;;6.45;4.95;;;;;;;23.84;51.93;98379.42;262098;1090;22824;-71
2021/07/04 09:17:04;;;;;;;6.00;5.23;;;;;;;24.04;50.84;98379.87;261855;1089;22777;-71
2021/07/04 09:22:11;;;;;;;5.83;5.23;;;;;;;24.18;50.81;98379.11;261801;1090;26286;-71
2021/07/04 09:27:16;;;;;;;8.43;7.70;;;;;;;24.12;50.11;98371.66;261848;1090;22897;-71
2021/07/04 09:32:27;;;;;;;4.78;4.38;;;;;;;23.96;50.48;98378.28;261896;1090;22860;-72
2021/07/04 09:37:35;;;;;;;4.83;4.43;;;;;;;24.15;50.08;98368.14;262229;1090;23632;-72
2021/07/04 09:43:06;;;;;;;5.98;5.13;;;;;;;24.18;50.01;98370.90;262691;1090;22808;-71
2021/07/04 09:48:11;;;;;;;5.73;5.18;;;;;;;24.41;49.79;98358.78;262344;1089;22860;-72
2021/07/04 09:53:46;;;;;;;6.05;5.35;;;;;;;24.42;49.36;98363.86;262384;1089;22854;-72
2021/07/04 09:59:00;;;;;;;6.15;5.63;;;;;;;24.37;49.05;98345.11;262846;1088;22792;-72
2021/07/04 10:04:38;;;;;;;5.98;5.33;;;;;;;24.58;48.83;98341.58;262678;1090;25932;-71
2021/07/04 10:09:47;;;;;;;5.85;5.30;;;;;;;24.73;48.95;98341.58;262524;1087;22815;-72
2021/07/04 10:14:52;;;;;;;6.50;5.90;;;;;;;24.86;48.93;98347.41;262460;1089;25858;-72
2021/07/04 10:19:58;;;;;;;6.48;5.70;;;;;;;24.97;47.96;98339.95;262679;1088;22763;-72
2021/07/04 10:25:06;;;;;;;6.00;5.50;;;;;;;25.12;48.31;98321.52;262576;1090;22883;-72
2021/07/04 10:30:14;;;;;;;6.83;6.23;;;;;;;25.31;47.18;98314.78;262524;1089;22793;-73
2021/07/04 10:35:19;;;;;;;6.60;6.00;;;;;;;25.42;47.25;98312.80;262232;1090;25880;-72
2021/07/04 10:40:23;;;;;;;6.40;5.83;;;;;;;25.56;46.98;98319.38;261956;1090;22796;-71
2021/07/04 10:45:38;;;;;;;6.13;5.63;;;;;;;25.26;46.72;98296.01;261889;1090;22863;-72
2021/07/04 10:51:15;;;;;;;5.85;5.20;;;;;;;25.13;46.52;98300.36;262060;1090;24270;-72
2021/07/04 10:56:42;;;;;;;5.95;5.38;;;;;;;25.24;46.99;98295.64;261890;1090;22787;-71
2021/07/04 11:01:54;;;;;;;5.77;5.27;;;;;;;25.39;45.98;98288.13;261863;1090;22757;-71
2021/07/04 11:07:04;;;;;;;7.00;6.30;;;;;;;25.42;46.11;98288.13;262284;1089;22882;-71
2021/07/04 11:12:34;;;;;;;5.75;5.23;;;;;;;25.55;46.13;98279.45;261896;1089;22809;-71
2021/07/04 11:17:58;;;;;;;6.13;5.38;;;;;;;25.63;45.47;98269.97;261834;1088;22809;-72
2021/07/04 11:23:08;;;;;;;5.65;5.15;;;;;;;25.88;45.61;98269.02;261825;1090;22800;-72
2021/07/04 11:28:18;;;;;;;6.28;5.68;;;;;;;25.95;45.35;98271.70;261863;1090;22864;-72
2021/07/04 11:33:28;;;;;;;7.53;5.78;;;;;;;25.96;44.43;98265.03;261951;1090;22846;-72
2021/07/04 11:38:41;;;;;;;7.03;5.00;;;;;;;26.07;44.48;98260.27;262339;1089;22892;-71
2021/07/04 11:43:46;;;;;;;7.20;5.85;;;;;;;26.15;44.08;98251.97;262727;1088;22947;-72
2021/07/04 11:49:09;;;;;;;5.33;4.93;;;;;;;26.18;43.25;98251.17;262413;1090;22779;-71
2021/07/04 11:54:17;;;;;;;5.83;5.33;;;;;;;26.20;43.63;98240.56;262888;1089;22790;-71
2021/07/04 11:59:24;;;;;;;6.38;5.78;;;;;;;26.33;43.03;98233.38;262349;1089;22790;-71
2021/07/04 12:04:44;;;;;;;5.97;5.47;;;;;;;26.45;43.15;98232.07;262653;1090;22770;-72
2021/07/04 12:10:15;;;;;;;5.33;4.85;;;;;;;26.46;42.38;98236.38;262020;1090;24495;-72
2021/07/04 12:15:50;;;;;;;5.18;4.73;;;;;;;26.43;41.20;98226.99;261835;1090;22771;-72
2021/07/04 12:21:13;;;;;;;5.00;4.60;;;;;;;26.55;42.13;98220.18;261854;1090;22925;-71
2021/07/04 12:26:17;;;;;;;4.53;4.23;;;;;;;26.70;41.41;98218.09;262087;1090;25862;-71
2021/07/04 12:31:20;;;;;;;5.18;4.55;;;;;;;26.69;41.63;98221.22;262383;1089;24302;-72
2021/07/04 12:36:24;;;;;;;5.23;4.83;;;;;;;26.45;40.98;98219.11;261937;1089;24038;-71
2021/07/04 12:41:34;;;;;;;5.08;4.58;;;;;;;26.22;41.19;98208.78;262083;1090;22863;-71
2021/07/04 12:46:38;;;;;;;7.18;6.53;;;;;;;26.45;41.57;98202.63;261890;1090;22889;-72
2021/07/04 12:52:07;;;;;;;5.40;5.00;;;;;;;26.75;41.16;98195.66;261821;1090;27300;-70
2021/07/04 12:57:10;;;;;;;5.35;4.85;;;;;;;26.96;40.63;98191.06;261996;1090;22767;-71
2021/07/04 13:02:39;;;;;;;4.93;4.53;;;;;;;26.88;40.48;98189.63;262625;1088;22795;-71
2021/07/04 13:07:44;;;;;;;4.77;4.37;;;;;;;27.00;40.36;98180.80;261831;1090;27109;-72
2021/07/04 13:13:02;;;;;;;4.53;4.23;;;;;;;27.13;40.06;98168.06;262006;1090;25977;-71
2021/07/04 13:18:29;;;;;;;5.38;4.88;;;;;;;27.18;38.59;98168.80;261872;1090;23076;-72
2021/07/04 13:23:32;;;;;;;4.83;4.33;;;;;;;27.14;38.58;98166.09;261986;1090;26450;-72
2021/07/04 13:28:39;;;;;;;4.88;4.48;;;;;;;27.12;38.97;98171.23;261841;1090;25868;-71
2021/07/04 13:33:45;;;;;;;4.68;4.35;;;;;;;27.05;38.19;98165.84;261820;1090;22767;-71
2021/07/04 13:38:59;;;;;;;5.20;4.75;;;;;;;27.34;38.51;98171.70;262286;1090;22784;-71
2021/07/04 13:44:04;;;;;;;4.58;4.18;;;;;;;27.75;37.58;98164.40;262027;1090;22908;-72
2021/07/04 13:49:12;;;;;;;4.80;4.40;;;;;;;27.92;37.23;98157.80;261999;1090;26062;-70
2021/07/04 14:00:24;;;;;;;4.57;4.20;;;;;;;27.41;37.30;98157.86;261889;1088;22802;-72
2021/07/04 14:12:47;;;;;;;4.50;4.20;;;;;;;27.80;37.25;98150.14;261805;1090;22808;-71
2021/07/04 14:19:45;;;;;;;;;;;;;;;;;;;;;
2021/07/04 14:26:02;;;;;;;4.65;4.25;;;;;;;27.94;37.24;98141.66;262445;1089;22806;-71
2021/07/04 14:32:25;;;;;;;4.90;4.50;;;;;;;27.53;35.98;98134.48;262043;1090;22851;-72
2021/07/04 14:38:28;;;;;;;4.73;4.33;;;;;;;27.28;36.98;98123.86;261875;1090;22802;-72
2021/07/04 14:43:56;;;;;;;5.93;5.30;;;;;;;27.00;37.39;98131.34;262608;1090;22969;-72
2021/07/04 14:49:07;;;;;;;4.80;4.40;;;;;;;27.05;37.53;98124.62;262336;1090;26089;-72
2021/07/04 14:54:23;;;;;;;4.58;4.20;;;;;;;27.21;37.41;98122.02;262386;1088;27083;-71
2021/07/04 14:59:29;;;;;;;5.00;4.60;;;;;;;27.28;37.38;98115.61;262465;1090;22920;-71
2021/07/04 15:11:48;;;;;;;;;;;;;;;;;;;;;
2021/07/04 15:16:53;;;;;;;4.63;4.30;;;;;;;27.57;36.99;98107.70;261728;1090;22769;-71
2021/07/04 15:21:58;;;;;;;4.85;4.45;;;;;;;27.35;36.47;98112.77;261861;1089;22763;-71
2021/07/04 15:27:02;;;;;;;4.60;4.30;;;;;;;27.20;36.57;98105.92;262080;1090;22856;-72
2021/07/04 15:32:06;;;;;;;5.45;4.95;;;;;;;27.02;37.06;98106.98;262423;1089;24346;-72
2021/07/04 15:37:15;;;;;;;4.90;4.50;;;;;;;27.06;37.30;98098.66;262108;1089;22805;-71
2021/07/04 15:42:19;;;;;;;4.98;4.58;;;;;;;27.14;36.81;98097.37;261856;1089;26053;-72
2021/07/04 15:47:25;;;;;;;4.65;4.28;;;;;;;27.31;37.16;98098.30;261933;1089;22908;-71
2021/07/04 15:52:29;;;;;;;4.78;4.38;;;;;;;27.37;36.72;98088.40;261937;1090;22814;-71
2021/07/04 15:57:34;;;;;;;4.78;4.35;;;;;;;27.50;36.84;98091.32;262143;1089;23475;-71
2021/07/04 16:02:38;;;;;;;4.63;4.30;;;;;;;27.70;36.29;98096.09;262341;1089;22854;-71
2021/07/04 16:13:48;;;;;;;5.48;4.98;;;;;;;27.60;36.15;98081.33;261823;1090;22869;-71
2021/07/04 16:18:55;;;;;;;5.25;4.83;;;;;;;27.52;36.23;98090.90;261903;1090;22821;-71
2021/07/04 16:23:58;;;;;;;5.03;4.63;;;;;;;27.55;35.82;98087.30;261823;1090;22813;-71
2021/07/04 16:29:03;;;;;;;5.83;4.78;;;;;;;27.62;36.34;98087.97;261952;1090;22864;-71
2021/07/04 16:34:07;;;;;;;4.93;4.50;;;;;;;27.73;36.21;98082.28;262139;1088;26321;-71
2021/07/04 16:39:11;;;;;;;5.03;4.63;;;;;;;27.82;36.23;98085.23;262185;1089;22790;-73
2021/07/04 16:44:14;;;;;;;4.78;4.38;;;;;;;27.83;36.32;98075.80;261915;1090;22777;-73
2021/07/04 16:49:18;;;;;;;4.58;4.28;;;;;;;27.71;36.18;98078.39;261991;1090;22897;-72
2021/07/04 16:54:21;;;;;;;5.00;4.60;;;;;;;27.35;36.36;98077.02;261871;1090;22774;-73
2021/07/04 16:59:25;;;;;;;7.13;6.45;;;;;;;26.99;36.59;98080.34;262373;1090;22850;-73
2021/07/04 17:04:29;;;;;;;5.68;5.18;;;;;;;26.63;37.35;98078.06;262982;1090;22808;-72
2021/07/04 17:09:33;;;;;;;4.85;4.40;;;;;;;26.28;37.69;98066.36;261885;1090;24372;-71
2021/07/04 17:14:37;;;;;;;4.73;4.30;;;;;;;25.96;37.69;98062.77;261878;1089;23366;-72
2021/07/04 17:19:41;;;;;;;4.93;4.53;;;;;;;25.70;38.73;98056.02;261890;1089;22917;-71
2021/07/04 17:24:44;;;;;;;5.50;5.00;;;;;;;25.78;39.49;98068.47;261965;1089;22777;-72
2021/07/04 17:29:51;;;;;;;5.28;4.78;;;;;;;25.77;39.35;98060.63;262457;1090;22904;-71
2021/07/04 17:34:55;;;;;;;5.33;4.93;;;;;;;25.66;39.58;98060.75;262119;1090;23082;-71
2021/07/04 17:39:59;;;;;;;5.63;4.95;;;;;;;25.53;39.66;98067.92;262333;1089;22809;-72
2021/07/04 17:45:16;;;;;;;;;;;;;;;;;;;;;
2021/07/04 17:50:30;;;;;;;5.60;4.98;;;;;;;25.62;40.06;98060.01;262430;1089;27511;-72
2021/07/04 17:55:34;;;;;;;10.45;5.20;;;;;;;25.62;40.30;98060.78;262814;1088;27704;-71
2021/07/04 18:00:49;;;;;;;5.45;4.95;;;;;;;25.53;40.46;98059.70;262837;1089;22837;-71
2021/07/04 18:06:20;;;;;;;5.28;4.80;;;;;;;25.40;40.51;98064.91;261484;1090;22830;-72
2021/07/04 18:12:00;;;;;;;4.90;4.60;;;;;;;25.23;40.17;98070.10;262065;1090;22854;-73
2021/07/04 18:17:37;;;;;;;5.05;4.65;;;;;;;25.06;40.45;98071.80;261816;1089;22824;-72
2021/07/04 18:22:42;;;;;;;5.20;4.78;;;;;;;24.90;41.04;98066.04;261848;1089;22769;-72
2021/07/04 18:27:48;;;;;;;4.93;4.48;;;;;;;24.72;41.49;98066.95;262105;1090;22789;-72
2021/07/04 18:32:52;;;;;;;5.10;4.60;;;;;;;24.51;41.48;98075.23;262315;1090;22902;-74
2021/07/04 18:38:03;;;;;;;5.45;4.95;;;;;;;24.25;42.32;98078.09;262268;1089;22793;-72
2021/07/04 18:43:09;;;;;;;5.25;4.78;;;;;;;23.97;43.03;98070.77;261936;1090;22988;-70
2021/07/04 18:48:16;;;;;;;5.70;5.20;;;;;;;23.63;43.97;98076.68;261834;1090;22779;-72
2021/07/04 18:53:20;;;;;;;5.65;5.15;;;;;;;23.32;44.40;98072.78;261825;1090;22854;-72
2021/07/04 18:58:24;;;;;;;5.68;4.80;;;;;;;23.05;45.34;98075.88;262178;1089;22819;-72
2021/07/04 19:03:27;;;;;;;6.68;5.43;;;;;;;22.79;46.33;98080.53;262699;1089;22763;-71
2021/07/04 19:08:33;;;;;;;6.33;5.45;;;;;;;22.52;47.08;98085.52;262255;1089;24308;-71
2021/07/04 19:13:37;;;;;;;6.63;4.58;;;;;;;22.23;48.34;98093.55;261816;1090;22905;-70
2021/07/04 19:18:41;;;;;;;5.50;4.95;;;;;;;21.95;48.79;98088.73;261854;1090;25862;-72
2021/07/04 19:23:45;;;;;;;5.93;5.33;;;;;;;21.68;50.01;98087.01;261958;1090;24647;-71
2021/07/04 19:28:49;;;;;;;5.53;5.03;;;;;;;21.45;50.85;98083.73;262465;1090;22764;-70
2021/07/04 19:34:04;;;;;;;5.98;5.45;;;;;;;21.22;51.47;98081.97;262349;1088;22770;-71
2021/07/04 19:39:25;;;;;;;6.35;5.75;;;;;;;20.94;52.46;98082.50;262044;1090;25855;-72
2021/07/04 19:44:29;;;;;;;6.08;5.13;;;;;;;20.72;53.63;98084.22;262977;1089;22847;-72
2021/07/04 19:49:34;;;;;;;6.18;5.25;;;;;;;20.56;54.16;98085.19;262466;1089;24307;-70
2021/07/04 19:54:38;;;;;;;8.25;7.05;;;;;;;20.43;54.52;98087.38;262707;1090;25376;-70
2021/07/04 19:59:41;;;;;;;7.63;6.93;;;;;;;20.31;55.66;98079.46;262812;1089;25874;-72
2021/07/04 20:04:53;;;;;;;7.40;6.43;;;;;;;20.20;56.34;98076.60;262418;1090;25170;-72
2021/07/04 20:09:56;;;;;;;7.87;6.90;;;;;;;20.07;56.97;98078.78;262301;1090;22766;-71
2021/07/04 20:15:01;;;;;;;7.30;6.50;;;;;;;19.94;56.97;98083.66;262395;1090;24038;-72
2021/07/04 20:20:06;;;;;;;8.70;7.73;;;;;;;19.85;57.64;98074.98;262393;1089;25875;-71
2021/07/04 20:25:11;;;;;;;14.67;7.83;;;;;;;19.75;58.32;98078.31;262510;1089;24563;-72
2021/07/04 20:30:17;;;;;;;8.30;7.10;;;;;;;19.64;58.87;98080.86;262247;1090;22753;-71
2021/07/04 20:35:23;;;;;;;7.50;6.68;;;;;;;19.56;59.43;98079.19;262351;1090;22770;-71
2021/07/04 20:40:27;;;;;;;7.40;6.70;;;;;;;19.49;60.02;98077.17;261791;1090;22917;-72
2021/07/04 20:45:31;;;;;;;8.05;7.00;;;;;;;19.36;60.05;98076.56;262827;1089;22763;-72
2021/07/04 20:50:35;;;;;;;11.70;9.45;;;;;;;19.24;60.15;98074.06;262626;1090;26308;-71
2021/07/04 20:55:47;;;;;;;13.73;10.27;;;;;;;19.14;60.40;98070.02;262488;1090;22763;-71
2021/07/04 21:00:55;;;;;;;13.45;10.60;;;;;;;19.07;60.79;98075.30;262636;1090;22895;-72
2021/07/04 21:06:11;;;;;;;12.60;9.68;;;;;;;18.99;60.56;98074.41;262649;1089;22760;-72
2021/07/04 21:11:25;;;;;;;11.10;9.00;;;;;;;18.86;60.21;98076.48;261812;1090;22850;-72
2021/07/04 21:16:50;;;;;;;10.95;8.85;;;;;;;18.75;60.39;98080.94;261830;1090;22786;-71
2021/07/04 21:21:54;;;;;;;11.50;8.60;;;;;;;18.64;61.01;98080.73;261874;1090;22788;-70
2021/07/04 21:26:58;;;;;;;11.23;8.60;;;;;;;18.56;61.97;98079.80;261035;1090;22753;-73
2021/07/04 21:32:04;;;;;;;9.95;7.85;;;;;;;18.41;62.72;98078.76;262159;1089;24138;-72
2021/07/04 21:37:08;;;;;;;9.40;7.75;;;;;;;18.27;63.18;98078.45;262301;1090;22830;-71
2021/07/04 21:42:12;;;;;;;9.73;7.53;;;;;;;18.18;63.59;98080.60;262095;1090;25925;-71
2021/07/04 21:47:17;;;;;;;9.20;7.40;;;;;;;18.10;64.52;98074.23;262105;1090;22908;-72
2021/07/04 21:52:20;;;;;;;11.65;8.60;;;;;;;18.10;64.67;98085.08;262601;1090;22850;-71
2021/07/04 21:57:24;;;;;;;11.60;9.20;;;;;;;18.04;64.50;98081.09;262359;1090;22796;-71
2021/07/04 22:02:28;;;;;;;12.80;9.25;;;;;;;17.99;64.31;98079.42;262468;1090;22781;-72
2021/07/04 22:07:34;;;;;;;10.37;8.30;;;;;;;17.92;64.88;98073.85;262048;1090;22968;-72
2021/07/04 22:12:37;;;;;;;11.00;8.40;;;;;;;17.88;65.34;98086.50;261978;1088;22885;-72
2021/07/04 22:17:47;;;;;;;11.40;8.20;;;;;;;17.86;65.63;98080.67;262060;1090;22845;-74
2021/07/04 22:22:53;;;;;;;11.85;9.15;;;;;;;17.84;65.61;98093.77;262010;1090;22885;-72
2021/07/04 22:27:59;;;;;;;12.35;10.50;;;;;;;17.74;65.62;98095.09;262182;1090;22811;-73
2021/07/04 22:33:04;;;;;;;14.85;10.15;;;;;;;17.64;65.54;98095.65;262447;1090;23935;-71
2021/07/04 22:38:11;;;;;;;12.35;8.60;;;;;;;17.56;65.80;98105.55;262451;1090;22762;-71
2021/07/04 22:43:15;;;;;;;11.00;9.77;;;;;;;17.49;65.89;98098.03;262030;1090;24035;-72
2021/07/04 22:48:19;;;;;;;13.87;10.63;;;;;;;17.42;66.56;98095.93;261976;1090;22886;-72
2021/07/04 22:53:24;;;;;;;13.50;9.35;;;;;;;17.35;66.80;98095.77;261924;1090;23519;-71
2021/07/04 22:58:27;;;;;;;14.50;12.00;;;;;;;17.24;66.89;98103.61;262320;1090;22784;-71
2021/07/04 23:03:32;;;;;;;15.35;11.05;;;;;;;17.21;66.79;98098.91;262420;1090;22880;-71
2021/07/04 23:08:36;;;;;;;13.40;11.75;;;;;;;17.22;66.92;98095.07;261949;1089;22762;-72
2021/07/04 23:13:47;;;;;;;14.20;11.70;;;;;;;17.22;67.14;98091.56;261914;1090;22922;-71
2021/07/04 23:19:01;;;;;;;12.80;10.48;;;;;;;17.18;67.05;98083.37;262333;1090;22790;-72
2021/07/04 23:24:05;;;;;;;13.00;10.57;;;;;;;17.15;67.36;98081.34;261968;1090;22784;-71
2021/07/04 23:29:08;;;;;;;12.70;10.20;;;;;;;17.17;67.77;98083.72;262562;1090;22757;-72
2021/07/04 23:34:34;;;;;;;13.83;11.47;;;;;;;17.15;68.03;98075.92;262431;1090;22777;-71
2021/07/04 23:39:47;;;;;;;13.40;11.40;;;;;;;17.10;68.07;98070.80;262200;1090;22757;-71
2021/07/04 23:45:12;;;;;;;;;;;;;;;;;;;;;
2021/07/04 23:50:22;;;;;;;12.50;10.15;;;;;;;17.03;68.30;98065.20;261984;1090;22788;-71
2021/07/04 23:55:28;;;;;;;12.70;9.90;;;;;;;17.03;68.88;98065.20;262058;1090;22852;-71
